Time;durP1;ratioP1;P1;durP2;ratioP2;P2;SDS_P1;SDS_P2;PMS_P1;PMS_P2;Temp;Humidity;BMP_temperature;BMP_pressure;BME280_temperature;BME280_humidity;BME280_pressure;Samples;Min_cycle;Max_cycle;Signal;HPM_P1;HPM_P2
2022/07/21 00:01:03;;;;;;;6.67;3.63;;;25.20;83.80;;;;;;5120834;28;20205;-91
2022/07/21 00:03:29;;;;;;;11.53;3.53;;;25.20;84.30;;;;;;5117102;27;20582;-91
2022/07/21 00:05:54;;;;;;;9.03;3.73;;;25.20;84.30;;;;;;5119221;28;20438;-91
2022/07/21 00:08:20;;;;;;;12.83;4.27;;;25.10;84.30;;;;;;5120118;28;20497;-92
2022/07/21 00:10:46;;;;;;;9.20;4.40;;;25.10;84.50;;;;;;5117823;28;20183;-91
2022/07/21 00:13:12;;;;;;;3.63;3.30;;;25.00;84.40;;;;;;5116315;28;20655;-92
2022/07/21 00:15:37;;;;;;;4.40;3.83;;;25.00;84.40;;;;;;5115755;28;20181;-91
2022/07/21 00:18:04;;;;;;;6.80;3.70;;;25.00;84.80;;;;;;5116607;28;20194;-91
2022/07/21 00:20:30;;;;;;;5.70;3.70;;;25.00;84.70;;;;;;5115389;28;20686;-92
2022/07/21 00:22:57;;;;;;;8.60;4.33;;;24.90;84.40;;;;;;5116531;28;20835;-92
2022/07/21 00:25:22;;;;;;;8.20;3.70;;;24.90;84.30;;;;;;5115982;28;20426;-92
2022/07/21 00:27:48;;;;;;;3.50;3.20;;;24.90;84.80;;;;;;5116540;28;20517;-92
2022/07/21 00:30:14;;;;;;;3.83;3.00;;;24.90;84.60;;;;;;5117180;28;20178;-92
2022/07/21 00:32:41;;;;;;;6.60;3.53;;;24.80;84.70;;;;;;5115347;28;20198;-92
2022/07/21 00:35:08;;;;;;;6.73;2.70;;;24.80;85.00;;;;;;5115307;28;20877;-91
2022/07/21 00:37:34;;;;;;;5.53;3.80;;;24.80;84.90;;;;;;5115574;28;20437;-91
2022/07/21 00:40:00;;;;;;;8.50;4.23;;;24.80;84.80;;;;;;5116636;28;20473;-93
2022/07/21 00:42:29;;;;;;;3.60;3.30;;;24.80;84.60;;;;;;5118469;28;20428;-92
2022/07/21 00:44:55;;;;;;;6.80;4.03;;;24.70;84.70;;;;;;5117296;28;20188;-91
2022/07/21 00:47:26;;;;;;;7.23;3.10;;;24.70;84.70;;;;;;5116165;28;20426;-92
2022/07/21 00:49:52;;;;;;;4.60;4.00;;;24.70;85.30;;;;;;5115273;28;20415;-92
2022/07/21 00:52:18;;;;;;;5.50;3.97;;;24.70;85.50;;;;;;5115944;28;20447;-90
2022/07/21 00:54:44;;;;;;;3.67;3.37;;;24.70;85.60;;;;;;5116317;28;20445;-91
2022/07/21 00:57:11;;;;;;;6.17;4.23;;;24.70;85.20;;;;;;5114995;28;20443;-92
2022/07/21 00:59:37;;;;;;;5.27;4.07;;;24.70;85.20;;;;;;5117812;28;20208;-91
2022/07/21 01:02:03;;;;;;;4.93;2.67;;;24.70;85.00;;;;;;5120947;28;20478;-93
2022/07/21 01:04:29;;;;;;;6.50;3.70;;;24.60;84.70;;;;;;5115388;28;20413;-92
2022/07/21 01:06:56;;;;;;;4.73;3.20;;;24.60;84.80;;;;;;5118545;28;20444;-91
2022/07/21 01:09:22;;;;;;;6.07;3.03;;;24.60;85.10;;;;;;5114928;28;20283;-92
2022/07/21 01:11:48;;;;;;;3.77;3.27;;;24.60;85.20;;;;;;5114529;28;20461;-92
2022/07/21 01:14:14;;;;;;;7.50;3.70;;;24.60;85.20;;;;;;5114677;28;20514;-93
2022/07/21 01:16:41;;;;;;;4.20;3.37;;;24.50;85.10;;;;;;5119703;28;20434;-92
2022/07/21 01:19:07;;;;;;;4.50;3.60;;;24.50;85.10;;;;;;5115831;28;20480;-92
2022/07/21 01:21:40;;;;;;;4.93;4.10;;;24.50;85.20;;;;;;5114916;28;20454;-93
2022/07/21 01:24:06;;;;;;;5.07;3.97;;;24.50;85.20;;;;;;5114324;28;20187;-92
2022/07/21 01:26:50;;;;;;;5.40;3.20;;;24.50;85.20;;;;;;5114241;28;20435;-93
2022/07/21 01:29:17;;;;;;;3.80;3.50;;;24.40;85.30;;;;;;5114574;28;20539;-92
2022/07/21 01:31:45;;;;;;;6.00;3.23;;;24.40;84.00;;;;;;5115255;28;20439;-93
2022/07/21 01:34:12;;;;;;;3.87;3.07;;;24.40;84.10;;;;;;5114826;28;20475;-92
2022/07/21 01:36:38;;;;;;;11.40;3.73;;;24.40;84.20;;;;;;5114209;28;20422;-92
2022/07/21 01:41:49;;;;;;;4.90;3.93;;;24.40;83.30;;;;;;5115226;28;20437;-92
2022/07/21 01:44:15;;;;;;;4.20;3.37;;;24.40;82.30;;;;;;5114289;28;20425;-92
2022/07/21 01:46:46;;;;;;;3.43;3.13;;;24.40;82.00;;;;;;5114754;28;20193;-92
2022/07/21 01:49:14;;;;;;;3.90;3.60;;;24.40;81.70;;;;;;5115869;28;20177;-92
2022/07/21 01:51:40;;;;;;;8.13;3.60;;;24.40;81.50;;;;;;5115370;28;20430;-91
2022/07/21 01:54:07;;;;;;;4.93;3.30;;;24.40;81.40;;;;;;5118413;28;20525;-92
2022/07/21 01:56:34;;;;;;;3.60;3.30;;;24.40;81.30;;;;;;5118657;28;20202;-93
2022/07/21 01:59:00;;;;;;;3.10;2.80;;;24.40;81.10;;;;;;5122768;28;20470;-92
2022/07/21 02:01:28;;;;;;;3.20;2.90;;;24.40;81.00;;;;;;5121074;28;20568;-92
2022/07/21 02:03:55;;;;;;;3.27;3.07;;;24.40;80.90;;;;;;5118316;28;20286;-92
2022/07/21 02:06:21;;;;;;;7.87;3.53;;;24.40;80.80;;;;;;5119113;28;20425;-92
2022/07/21 02:08:47;;;;;;;3.40;3.10;;;24.50;81.50;;;;;;5117946;28;20477;-93
2022/07/21 02:11:14;;;;;;;6.33;3.60;;;24.50;82.20;;;;;;5117953;28;20785;-93
2022/07/21 02:13:40;;;;;;;6.07;3.27;;;24.50;82.80;;;;;;5120243;28;20180;-93
2022/07/21 02:16:07;;;;;;;3.80;3.40;;;24.50;82.70;;;;;;5117971;28;20927;-92
2022/07/21 02:18:33;;;;;;;3.90;3.40;;;24.50;82.70;;;;;;5118028;28;20510;-92
2022/07/21 02:20:59;;;;;;;6.20;3.10;;;24.50;82.70;;;;;;5118788;28;20533;-92
2022/07/21 02:23:25;;;;;;;4.97;3.30;;;24.40;82.70;;;;;;5117938;28;20229;-91
2022/07/21 02:25:52;;;;;;;4.80;3.33;;;24.40;82.60;;;;;;5119355;28;20178;-92
2022/07/21 02:28:19;;;;;;;5.27;3.20;;;24.40;82.50;;;;;;5117724;28;20425;-93
2022/07/21 02:30:46;;;;;;;3.87;3.47;;;24.40;82.70;;;;;;5117724;28;20413;-92
2022/07/21 02:33:12;;;;;;;4.50;3.43;;;24.40;82.90;;;;;;5117523;28;20477;-93
2022/07/21 02:35:38;;;;;;;4.23;3.90;;;24.30;82.90;;;;;;5118621;28;20447;-91
2022/07/21 02:38:05;;;;;;;4.13;3.50;;;24.30;82.90;;;;;;5118397;28;20453;-91
2022/07/21 02:40:31;;;;;;;4.90;3.70;;;24.30;83.10;;;;;;5117460;28;20966;-92
2022/07/21 02:42:57;;;;;;;4.77;3.50;;;24.30;83.20;;;;;;5117494;28;20444;-92
2022/07/21 02:45:23;;;;;;;5.30;3.50;;;24.20;83.00;;;;;;5118015;28;20435;-92
2022/07/21 02:47:59;;;;;;;4.50;3.40;;;24.20;82.60;;;;;;5118998;28;20471;-92
2022/07/21 02:50:30;;;;;;;5.37;2.60;;;24.20;82.50;;;;;;5118858;28;20420;-92
2022/07/21 02:52:57;;;;;;;4.07;3.67;;;24.10;82.50;;;;;;5117658;28;20440;-93
2022/07/21 02:55:25;;;;;;;6.70;4.00;;;24.00;83.40;;;;;;5121007;28;20880;-92
2022/07/21 02:58:14;;;;;;;3.30;3.00;;;24.00;83.70;;;;;;5118708;28;20563;-92
2022/07/21 03:00:43;;;;;;;3.53;3.10;;;23.80;83.80;;;;;;5124422;28;20463;-91
2022/07/21 03:03:09;;;;;;;6.47;3.77;;;23.80;83.70;;;;;;5119937;28;20432;-92
2022/07/21 03:05:35;;;;;;;4.97;3.63;;;23.70;83.80;;;;;;5123165;28;20434;-92
2022/07/21 03:08:02;;;;;;;4.13;3.53;;;23.70;84.00;;;;;;5118534;28;20475;-93
2022/07/21 03:10:27;;;;;;;4.90;3.30;;;23.60;84.10;;;;;;5117201;28;20460;-92
2022/07/21 03:12:54;;;;;;;6.13;4.47;;;23.60;84.00;;;;;;5118062;27;20518;-92
2022/07/21 03:15:20;;;;;;;7.20;3.67;;;23.60;84.00;;;;;;5120048;28;20408;-93
2022/07/21 03:17:46;;;;;;;5.43;3.83;;;23.60;84.00;;;;;;5116911;28;20231;-93
2022/07/21 03:20:12;;;;;;;4.97;3.80;;;23.60;84.10;;;;;;5116959;28;20211;-92
2022/07/21 03:22:38;;;;;;;7.83;3.40;;;23.60;84.50;;;;;;5117669;28;20193;-91
2022/07/21 03:25:05;;;;;;;5.17;3.50;;;23.60;84.40;;;;;;5116530;28;20421;-90
2022/07/21 03:27:35;;;;;;;4.13;3.83;;;23.60;84.40;;;;;;5117293;28;21012;-92
2022/07/21 03:30:05;;;;;;;5.00;3.50;;;23.60;84.20;;;;;;5123861;28;20787;-92
2022/07/21 03:32:31;;;;;;;4.83;3.40;;;23.60;84.50;;;;;;5116975;28;20835;-92
2022/07/21 03:34:57;;;;;;;10.23;3.70;;;23.60;84.60;;;;;;5116957;28;20516;-93
2022/07/21 03:37:22;;;;;;;8.07;3.13;;;23.60;84.30;;;;;;5116365;28;20325;-93
2022/07/21 03:39:48;;;;;;;8.30;3.37;;;23.60;83.90;;;;;;5116340;28;20240;-92
2022/07/21 03:42:14;;;;;;;4.07;3.13;;;23.70;83.70;;;;;;5117709;28;20203;-92
2022/07/21 03:44:39;;;;;;;176.13;84.80;;;23.70;83.60;;;;;;5117079;28;20194;-93
2022/07/21 03:47:05;;;;;;;21.37;13.67;;;23.70;83.60;;;;;;5116323;28;20200;-93
2022/07/21 03:49:31;;;;;;;14.83;9.57;;;23.70;83.60;;;;;;5118763;28;20176;-93
2022/07/21 03:51:56;;;;;;;5.20;4.13;;;23.70;83.30;;;;;;5118944;28;20467;-93
2022/07/21 03:54:22;;;;;;;3.63;3.17;;;23.80;83.30;;;;;;5120402;28;20172;-93
2022/07/21 03:56:48;;;;;;;5.80;3.60;;;23.80;83.30;;;;;;5116040;28;20192;-93
2022/07/21 03:59:13;;;;;;;3.70;3.40;;;23.80;83.40;;;;;;5116948;28;20270;-94
2022/07/21 04:01:39;;;;;;;3.67;3.37;;;23.80;83.30;;;;;;5115957;28;20256;-92
2022/07/21 04:04:04;;;;;;;3.30;3.07;;;23.80;83.30;;;;;;5116885;28;20196;-92
2022/07/21 04:06:30;;;;;;;3.87;3.47;;;23.80;83.20;;;;;;5117754;28;20203;-93
2022/07/21 04:08:56;;;;;;;8.63;3.67;;;23.90;83.10;;;;;;5116877;28;20267;-92
2022/07/21 04:11:22;;;;;;;3.33;3.03;;;23.90;83.10;;;;;;5116718;28;20513;-92
2022/07/21 04:13:47;;;;;;;5.93;2.93;;;23.90;83.10;;;;;;5115872;28;20179;-93
2022/07/21 04:16:13;;;;;;;5.20;3.43;;;24.00;83.10;;;;;;5119076;28;20266;-92
2022/07/21 04:18:39;;;;;;;4.20;3.00;;;24.00;83.00;;;;;;5116625;28;20227;-93
2022/07/21 04:21:04;;;;;;;4.80;3.53;;;24.00;83.10;;;;;;5115333;28;20224;-92
2022/07/21 04:23:31;;;;;;;6.83;3.60;;;24.00;83.20;;;;;;5117863;28;20188;-93
2022/07/21 04:26:00;;;;;;;8.27;3.73;;;24.00;83.20;;;;;;5115718;28;20195;-92
2022/07/21 04:28:25;;;;;;;8.93;3.90;;;24.00;83.10;;;;;;5116013;28;20429;-92
2022/07/21 04:30:51;;;;;;;5.67;3.67;;;24.10;83.30;;;;;;5116328;28;20410;-93
2022/07/21 04:33:17;;;;;;;5.30;3.23;;;24.10;83.20;;;;;;5115342;28;20205;-93
2022/07/21 04:35:43;;;;;;;4.17;3.73;;;24.10;83.10;;;;;;5116320;27;20181;-92
2022/07/21 04:38:09;;;;;;;4.67;4.20;;;24.10;83.80;;;;;;5115009;28;20600;-93
2022/07/21 04:40:36;;;;;;;8.30;4.10;;;24.10;83.10;;;;;;5115581;28;20218;-92
2022/07/21 04:43:02;;;;;;;5.40;4.10;;;24.10;83.20;;;;;;5115138;28;20913;-92
2022/07/21 04:45:27;;;;;;;9.43;4.30;;;24.10;83.20;;;;;;5119556;28;20419;-93
2022/07/21 04:47:54;;;;;;;6.70;3.87;;;24.10;83.40;;;;;;5122724;28;20438;-93
2022/07/21 04:50:23;;;;;;;6.13;3.90;;;24.10;83.30;;;;;;5115598;28;20527;-92
2022/07/21 04:52:49;;;;;;;3.77;3.47;;;24.10;83.40;;;;;;5115346;28;20444;-93
2022/07/21 04:55:15;;;;;;;9.40;4.33;;;24.10;83.50;;;;;;5113178;28;20462;-93
2022/07/21 04:57:46;;;;;;;4.17;3.73;;;24.10;83.40;;;;;;5114748;28;20958;-93
2022/07/21 05:00:16;;;;;;;4.53;3.97;;;24.20;83.50;;;;;;5114895;28;20466;-92
2022/07/21 05:02:42;;;;;;;14.87;4.60;;;24.20;84.10;;;;;;5113092;28;20433;-91
2022/07/21 05:05:08;;;;;;;6.50;4.13;;;24.30;83.50;;;;;;5115060;28;20437;-92
2022/07/21 05:07:34;;;;;;;12.90;3.97;;;24.30;83.40;;;;;;5114281;28;20514;-92
2022/07/21 05:10:11;;;;;;;52.80;34.10;;;24.40;83.30;;;;;;5102871;28;20406;-94
2022/07/21 05:12:37;;;;;;;773.37;439.10;;;24.40;83.50;;;;;;5095581;28;20637;-90
2022/07/21 05:15:05;;;;;;;31.57;21.00;;;24.50;83.30;;;;;;5097813;28;20516;-92
2022/07/21 05:17:31;;;;;;;13.50;8.40;;;24.60;83.20;;;;;;5094344;28;20440;-93
2022/07/21 05:19:59;;;;;;;7.50;6.63;;;24.70;83.10;;;;;;5095101;28;20483;-93
2022/07/21 05:22:25;;;;;;;5.97;4.90;;;24.80;83.00;;;;;;5114868;28;21048;-92
2022/07/21 05:24:50;;;;;;;6.33;4.70;;;24.90;82.80;;;;;;5104841;28;20423;-93
2022/07/21 05:27:16;;;;;;;6.33;3.80;;;25.10;82.70;;;;;;5099643;28;20451;-92
2022/07/21 05:29:42;;;;;;;4.70;3.60;;;25.20;82.80;;;;;;5113586;28;20530;-94
2022/07/21 05:32:07;;;;;;;3.87;3.47;;;25.30;83.30;;;;;;5105038;28;20209;-94
2022/07/21 05:34:33;;;;;;;6.10;4.00;;;25.50;83.30;;;;;;5103570;28;20187;-92
2022/07/21 05:36:59;;;;;;;5.83;4.10;;;25.60;83.10;;;;;;5104547;28;20278;-92
2022/07/21 05:39:25;;;;;;;134.47;70.40;;;25.80;82.90;;;;;;5114642;28;20271;-92
2022/07/21 05:41:50;;;;;;;65.53;37.23;;;25.90;82.60;;;;;;5115683;28;20191;-93
2022/07/21 05:44:16;;;;;;;18.70;13.37;;;26.10;82.30;;;;;;5114004;28;20191;-93
2022/07/21 05:46:42;;;;;;;10.27;6.13;;;26.20;82.20;;;;;;5109036;28;20289;-92
2022/07/21 05:49:07;;;;;;;40.87;24.90;;;26.30;82.00;;;;;;5094162;28;20202;-93
2022/07/21 05:51:33;;;;;;;25.97;14.07;;;26.50;81.90;;;;;;5106104;28;20207;-94
2022/07/21 05:53:59;;;;;;;16.73;8.70;;;26.60;81.60;;;;;;5115632;28;20185;-94
2022/07/21 05:56:24;;;;;;;7.53;5.47;;;26.80;81.40;;;;;;5114676;28;20207;-93
2022/07/21 05:58:50;;;;;;;6.07;4.90;;;26.90;81.10;;;;;;5113701;28;20183;-94
2022/07/21 06:01:17;;;;;;;7.80;5.43;;;27.00;81.00;;;;;;5093460;28;20583;-93
2022/07/21 06:03:49;;;;;;;4.77;4.37;;;27.20;81.00;;;;;;5095379;28;20207;-91
2022/07/21 06:06:16;;;;;;;6.80;4.50;;;27.30;80.90;;;;;;5100901;28;20475;-93
2022/07/21 06:08:47;;;;;;;8.13;4.57;;;27.40;80.60;;;;;;5102629;28;20838;-93
2022/07/21 06:11:16;;;;;;;5.67;5.00;;;27.50;80.20;;;;;;5098842;28;20441;-93
2022/07/21 06:13:42;;;;;;;5.80;4.83;;;27.70;79.80;;;;;;5104112;28;20477;-94
2022/07/21 06:16:08;;;;;;;6.37;4.50;;;27.80;79.40;;;;;;5098366;28;20496;-93
2022/07/21 06:18:34;;;;;;;6.93;4.73;;;27.90;78.80;;;;;;5109835;28;20188;-93
2022/07/21 06:21:00;;;;;;;12.53;4.70;;;28.00;78.80;;;;;;5097758;28;20806;-92
2022/07/21 06:23:26;;;;;;;5.97;4.90;;;28.20;79.20;;;;;;5103852;28;20307;-93
2022/07/21 06:25:52;;;;;;;4.70;4.23;;;28.30;78.50;;;;;;5109016;28;20456;-92
2022/07/21 06:28:19;;;;;;;4.40;4.00;;;28.30;77.20;;;;;;5105044;28;20442;-94
2022/07/21 06:30:45;;;;;;;6.80;4.43;;;28.50;77.40;;;;;;5100012;28;20423;-92
2022/07/21 06:33:11;;;;;;;6.17;4.40;;;28.60;77.40;;;;;;5098062;28;20470;-93
2022/07/21 06:35:37;;;;;;;5.20;4.70;;;28.70;77.40;;;;;;5101655;28;20206;-92
2022/07/21 06:38:03;;;;;;;5.57;4.50;;;28.80;77.00;;;;;;5109704;28;20203;-92
2022/07/21 06:40:29;;;;;;;5.63;4.33;;;28.90;76.60;;;;;;5116418;28;20483;-92
2022/07/21 06:42:55;;;;;;;5.07;4.50;;;29.00;76.60;;;;;;5114876;28;20468;-92
2022/07/21 06:45:22;;;;;;;8.40;5.20;;;29.10;76.40;;;;;;5112581;28;20557;-93
2022/07/21 06:47:47;;;;;;;5.23;4.73;;;29.30;76.10;;;;;;5107212;28;20524;-92
2022/07/21 06:50:13;;;;;;;7.70;5.20;;;29.40;76.00;;;;;;5108901;28;20428;-92
2022/07/21 06:52:39;;;;;;;6.40;4.67;;;29.50;75.80;;;;;;5107951;28;20207;-92
2022/07/21 06:55:07;;;;;;;5.70;4.77;;;29.60;75.90;;;;;;5114612;28;20440;-93
2022/07/21 06:57:34;;;;;;;5.57;5.03;;;29.70;75.30;;;;;;5104605;28;20449;-92
2022/07/21 07:00:00;;;;;;;5.37;4.57;;;29.80;75.60;;;;;;5107204;28;20465;-92
2022/07/21 07:02:26;;;;;;;5.23;4.60;;;29.90;75.60;;;;;;5104383;27;20447;-93
2022/07/21 07:04:52;;;;;;;10.77;5.00;;;30.00;75.30;;;;;;5098624;28;20438;-92
2022/07/21 07:07:18;;;;;;;4.70;4.20;;;30.00;74.60;;;;;;5100729;28;20478;-92
2022/07/21 07:09:43;;;;;;;6.60;4.70;;;30.10;74.50;;;;;;5108264;28;20200;-93
2022/07/21 07:12:09;;;;;;;5.50;4.47;;;30.20;74.80;;;;;;5099169;28;20212;-93
2022/07/21 07:14:35;;;;;;;4.30;4.00;;;30.30;74.70;;;;;;5107023;28;20204;-93
2022/07/21 07:17:03;;;;;;;4.23;3.83;;;30.40;74.90;;;;;;5107176;28;20207;-93
2022/07/21 07:19:29;;;;;;;4.07;3.67;;;30.40;75.00;;;;;;5105942;28;20473;-93
2022/07/21 07:21:55;;;;;;;6.30;4.90;;;30.50;74.50;;;;;;5105137;28;20449;-93
2022/07/21 07:24:21;;;;;;;11.27;4.37;;;30.70;74.90;;;;;;5102121;28;20473;-93
2022/07/21 07:26:48;;;;;;;5.90;4.33;;;30.80;74.80;;;;;;5105700;28;20451;-92
2022/07/21 07:29:13;;;;;;;4.60;3.63;;;30.80;74.50;;;;;;5109403;27;20980;-93
2022/07/21 07:31:39;;;;;;;4.87;3.97;;;30.90;74.10;;;;;;5099867;28;20456;-93
2022/07/21 07:34:05;;;;;;;5.73;3.90;;;31.00;74.40;;;;;;5109104;28;20689;-92
2022/07/21 07:36:31;;;;;;;6.60;4.27;;;31.10;74.40;;;;;;5109165;28;20218;-93
2022/07/21 07:38:57;;;;;;;4.93;4.43;;;31.20;74.20;;;;;;5097269;28;20694;-93
2022/07/21 07:41:26;;;;;;;5.07;3.97;;;31.20;73.20;;;;;;5116770;28;20954;-92
2022/07/21 07:43:52;;;;;;;6.70;4.80;;;31.30;72.60;;;;;;5112020;28;20784;-93
2022/07/21 07:46:19;;;;;;;6.23;4.47;;;31.40;72.90;;;;;;5103391;28;20884;-93
2022/07/21 07:48:45;;;;;;;4.33;3.93;;;31.50;73.30;;;;;;5107826;28;20431;-92
2022/07/21 07:51:12;;;;;;;4.83;4.33;;;31.50;73.10;;;;;;5111335;28;20417;-93
2022/07/21 07:53:39;;;;;;;4.17;3.70;;;31.60;73.10;;;;;;5103815;28;20440;-93
2022/07/21 07:56:06;;;;;;;5.97;4.60;;;31.70;73.10;;;;;;5107368;28;20423;-92
2022/07/21 07:58:32;;;;;;;6.27;4.17;;;31.80;73.10;;;;;;5101309;28;20461;-94
2022/07/21 08:00:58;;;;;;;4.60;4.07;;;31.90;72.60;;;;;;5105593;28;20506;-93
2022/07/21 08:03:24;;;;;;;5.43;4.03;;;32.00;72.40;;;;;;5099383;28;20647;-93
2022/07/21 08:05:50;;;;;;;4.70;4.23;;;32.00;72.20;;;;;;5109064;28;20476;-91
2022/07/21 08:08:17;;;;;;;5.40;4.47;;;32.10;72.00;;;;;;5110408;28;20907;-93
2022/07/21 08:10:45;;;;;;;5.77;4.57;;;32.20;72.80;;;;;;5098173;28;20827;-93
2022/07/21 08:13:16;;;;;;;4.40;4.00;;;32.30;73.00;;;;;;5105860;28;20451;-94
2022/07/21 08:15:43;;;;;;;5.77;4.30;;;32.40;71.90;;;;;;5112696;28;20412;-93
2022/07/21 08:18:09;;;;;;;9.23;4.40;;;32.40;71.60;;;;;;5107075;28;20429;-94
2022/07/21 08:20:36;;;;;;;4.07;3.67;;;32.50;71.60;;;;;;5103073;28;20513;-93
2022/07/21 08:23:03;;;;;;;5.10;4.43;;;32.60;71.20;;;;;;5111340;28;20456;-93
2022/07/21 08:25:28;;;;;;;5.10;4.33;;;32.70;71.10;;;;;;5114376;28;20443;-94
2022/07/21 08:27:54;;;;;;;5.63;4.50;;;32.70;70.50;;;;;;5100810;28;20491;-93
2022/07/21 08:30:20;;;;;;;4.30;3.90;;;32.80;69.30;;;;;;5112932;28;20188;-93
2022/07/21 08:32:46;;;;;;;4.80;4.40;;;32.90;71.10;;;;;;5112378;28;20207;-92
2022/07/21 08:35:11;;;;;;;5.10;3.50;;;33.00;70.50;;;;;;5096846;28;20184;-93
2022/07/21 08:37:39;;;;;;;6.03;4.30;;;33.10;70.50;;;;;;5104094;28;20609;-90
2022/07/21 08:40:25;;;;;;;4.20;3.80;;;33.20;69.60;;;;;;5107491;28;20208;-93
2022/07/21 08:42:52;;;;;;;6.70;3.53;;;33.20;67.40;;;;;;5104005;28;20467;-92
2022/07/21 08:45:18;;;;;;;5.10;3.13;;;33.30;68.40;;;;;;5103271;28;20431;-93
2022/07/21 08:47:44;;;;;;;5.10;3.63;;;33.30;67.80;;;;;;5099691;28;20784;-91
2022/07/21 08:50:10;;;;;;;4.90;4.30;;;33.30;67.00;;;;;;5111653;28;20188;-93
2022/07/21 08:52:36;;;;;;;6.10;4.23;;;33.30;66.90;;;;;;5110885;28;20206;-92
2022/07/21 08:55:02;;;;;;;5.03;3.53;;;33.30;67.20;;;;;;5101481;28;20559;-91
2022/07/21 08:57:27;;;;;;;4.00;3.60;;;33.40;66.20;;;;;;5113230;28;20591;-92
2022/07/21 08:59:53;;;;;;;6.00;4.50;;;33.40;66.90;;;;;;5112767;28;20539;-93
2022/07/21 09:02:29;;;;;;;5.70;3.60;;;33.50;66.00;;;;;;5097561;28;20227;-92
2022/07/21 09:04:55;;;;;;;4.87;3.63;;;33.60;66.60;;;;;;5111697;28;20205;-92
2022/07/21 09:07:22;;;;;;;4.10;3.70;;;33.60;65.70;;;;;;5100932;28;20558;-92
2022/07/21 09:10:00;;;;;;;6.90;4.47;;;33.70;66.50;;;;;;5119722;27;20211;-93
2022/07/21 09:12:26;;;;;;;5.17;3.87;;;33.80;66.10;;;;;;5107329;28;20445;-91
2022/07/21 09:15:11;;;;;;;4.93;4.37;;;33.90;66.30;;;;;;5106792;28;20443;-91
2022/07/21 09:17:37;;;;;;;11.43;4.60;;;34.00;66.00;;;;;;5115173;28;20448;-92
2022/07/21 09:20:03;;;;;;;6.30;4.30;;;34.00;65.10;;;;;;5105106;28;20512;-91
2022/07/21 09:22:29;;;;;;;4.30;3.60;;;34.00;65.10;;;;;;5113505;28;20203;-93
2022/07/21 09:24:54;;;;;;;5.70;4.10;;;34.10;65.00;;;;;;5109002;28;20531;-92
2022/07/21 09:27:24;;;;;;;4.30;4.00;;;34.10;65.00;;;;;;5108270;28;20259;-90
2022/07/21 09:29:52;;;;;;;5.70;4.00;;;34.20;66.00;;;;;;5101872;28;20184;-91
2022/07/21 09:32:25;;;;;;;3.70;3.23;;;34.30;66.20;;;;;;5116645;27;20444;-92
2022/07/21 09:35:03;;;;;;;4.20;3.80;;;34.40;66.10;;;;;;5106123;28;20444;-92
2022/07/21 09:37:29;;;;;;;5.00;3.40;;;34.40;64.60;;;;;;5103173;28;20444;-92
2022/07/21 09:40:03;;;;;;;5.60;4.10;;;34.50;65.50;;;;;;5108262;28;20508;-93
2022/07/21 09:42:35;;;;;;;4.87;4.47;;;34.60;66.90;;;;;;5109304;28;20196;-94
2022/07/21 09:45:07;;;;;;;4.93;4.03;;;34.70;66.00;;;;;;5106445;28;20660;-93
2022/07/21 09:47:33;;;;;;;4.70;3.83;;;34.80;65.20;;;;;;5094863;28;20462;-92
2022/07/21 09:50:01;;;;;;;5.23;3.90;;;34.80;65.00;;;;;;5105483;28;20496;-93
2022/07/21 09:52:34;;;;;;;5.07;4.07;;;34.80;63.70;;;;;;5097810;28;20451;-93
2022/07/21 09:55:11;;;;;;;4.43;4.03;;;34.80;63.70;;;;;;5101606;28;20428;-93
2022/07/21 09:57:37;;;;;;;4.23;3.83;;;34.80;64.10;;;;;;5113958;28;20435;-92
2022/07/21 10:00:06;;;;;;;3.73;3.43;;;34.80;63.00;;;;;;5111023;28;20476;-92
2022/07/21 10:02:33;;;;;;;5.07;3.80;;;34.70;62.90;;;;;;5097562;28;20510;-93
2022/07/21 10:05:06;;;;;;;3.87;3.57;;;34.70;63.70;;;;;;5101010;28;20436;-92
2022/07/21 10:07:33;;;;;;;4.40;3.70;;;34.80;63.70;;;;;;5107091;28;20500;-93
2022/07/21 10:09:59;;;;;;;4.73;3.60;;;34.90;63.30;;;;;;5087161;28;20453;-93
2022/07/21 10:12:26;;;;;;;5.43;3.80;;;34.90;63.00;;;;;;5088556;28;20800;-94
2022/07/21 10:14:53;;;;;;;4.77;3.70;;;35.00;63.30;;;;;;5111214;28;20211;-93
2022/07/21 10:17:20;;;;;;;4.13;3.73;;;35.00;63.00;;;;;;5101948;28;20446;-93
2022/07/21 10:20:07;;;;;;;4.13;3.83;;;35.00;63.00;;;;;;5098376;28;20471;-92
2022/07/21 10:23:23;;;;;;;3.43;3.17;;;34.90;62.60;;;;;;5106317;28;20810;-93
2022/07/21 10:25:50;;;;;;;4.90;3.40;;;34.90;63.40;;;;;;5104321;28;20436;-93
2022/07/21 10:28:18;;;;;;;3.97;3.00;;;35.00;62.60;;;;;;5102123;28;20447;-93
2022/07/21 10:30:54;;;;;;;3.70;3.40;;;35.00;62.90;;;;;;5104183;28;20442;-93
2022/07/21 10:33:41;;;;;;;3.47;3.17;;;35.00;62.00;;;;;;5100479;28;20491;-95
2022/07/21 10:36:08;;;;;;;3.60;3.27;;;35.10;62.40;;;;;;5101637;28;20437;-93
2022/07/21 10:38:35;;;;;;;3.90;3.50;;;35.10;62.10;;;;;;5114329;28;20423;-92
2022/07/21 10:41:05;;;;;;;3.57;3.00;;;35.10;61.70;;;;;;5095297;28;20461;-94
2022/07/21 10:43:30;;;;;;;3.83;3.47;;;35.00;61.60;;;;;;5100849;28;20471;-93
2022/07/21 10:45:58;;;;;;;5.17;3.23;;;35.00;61.80;;;;;;5107237;28;20710;-93
2022/07/21 10:48:42;;;;;;;3.80;3.50;;;35.00;62.10;;;;;;5113192;28;20195;-93
2022/07/21 10:51:09;;;;;;;5.30;4.90;;;34.90;61.90;;;;;;5106871;28;20439;-93
2022/07/21 10:53:35;;;;;;;3.50;3.17;;;34.80;61.90;;;;;;5103402;28;20464;-93
2022/07/21 10:56:02;;;;;;;3.27;2.97;;;34.70;61.90;;;;;;5101211;28;20420;-93
2022/07/21 10:58:28;;;;;;;3.37;3.10;;;34.70;61.80;;;;;;5099452;28;20436;-94
2022/07/21 11:00:59;;;;;;;3.67;3.37;;;34.50;61.90;;;;;;5106029;28;20681;-95
2022/07/21 11:03:39;;;;;;;3.40;3.10;;;34.30;62.10;;;;;;5100436;28;20523;-93
2022/07/21 11:06:23;;;;;;;3.53;2.80;;;34.10;62.30;;;;;;5099770;28;20977;-95
2022/07/21 11:08:51;;;;;;;5.30;3.30;;;34.00;62.50;;;;;;5112160;28;20493;-95
2022/07/21 11:11:27;;;;;;;6.50;3.70;;;34.10;63.00;;;;;;5114276;28;20512;-94
2022/07/21 11:14:09;;;;;;;3.03;2.77;;;34.10;62.90;;;;;;5099088;28;20539;-95
2022/07/21 11:16:41;;;;;;;4.20;3.33;;;34.20;62.90;;;;;;5111117;28;20462;-96
2022/07/21 11:19:35;;;;;;;3.30;3.00;;;34.20;63.00;;;;;;5095205;28;20445;-94
2022/07/21 11:22:27;;;;;;;3.60;3.30;;;34.00;62.80;;;;;;5107777;28;20543;-91
2022/07/21 11:24:59;;;;;;;5.07;3.20;;;33.90;63.20;;;;;;5108064;28;20462;-96
2022/07/21 11:27:27;;;;;;;3.10;2.90;;;33.90;63.30;;;;;;5114093;28;20540;-94
2022/07/21 11:29:59;;;;;;;4.00;2.80;;;33.90;63.20;;;;;;5115238;27;20459;-95
2022/07/21 11:32:26;;;;;;;4.27;3.10;;;33.90;63.30;;;;;;5103956;28;20458;-95
2022/07/21 11:35:00;;;;;;;3.57;2.93;;;33.90;63.50;;;;;;5115340;28;20436;-95
2022/07/21 11:37:31;;;;;;;3.70;2.83;;;33.80;63.40;;;;;;5107135;28;20448;-96
2022/07/21 11:39:58;;;;;;;3.37;3.00;;;33.80;63.40;;;;;;5107039;28;20474;-96
2022/07/21 11:42:26;;;;;;;3.83;2.93;;;33.80;63.40;;;;;;5105707;28;20445;-96
2022/07/21 11:44:52;;;;;;;3.57;2.93;;;33.70;63.40;;;;;;5110882;28;20528;-95
2022/07/21 11:47:20;;;;;;;3.00;2.70;;;33.70;63.50;;;;;;5108204;28;20472;-92
2022/07/21 11:49:46;;;;;;;3.07;2.87;;;33.50;63.90;;;;;;5100132;28;20449;-95
2022/07/21 11:52:17;;;;;;;3.30;3.00;;;33.60;63.80;;;;;;5102729;28;20445;-92
2022/07/21 11:54:49;;;;;;;3.40;3.10;;;33.60;64.00;;;;;;5097329;28;20705;-91
2022/07/21 11:57:17;;;;;;;4.43;3.10;;;33.60;64.10;;;;;;5102546;28;21012;-96
2022/07/21 11:59:44;;;;;;;3.97;2.97;;;33.80;63.60;;;;;;5095738;28;20472;-96
2022/07/21 12:02:14;;;;;;;3.77;3.20;;;33.70;63.70;;;;;;5102748;28;20445;-94
2022/07/21 12:05:12;;;;;;;3.53;3.20;;;33.50;63.90;;;;;;5104617;28;20467;-96
2022/07/21 12:07:43;;;;;;;3.63;2.87;;;33.60;64.00;;;;;;5108515;28;20501;-94
2022/07/21 12:10:17;;;;;;;4.10;3.20;;;33.60;64.00;;;;;;5106811;28;20453;-92
2022/07/21 12:12:45;;;;;;;3.27;3.03;;;33.60;64.10;;;;;;5115978;28;20439;-95
2022/07/21 12:15:23;;;;;;;4.73;3.13;;;33.70;64.00;;;;;;5115638;28;20428;-95
2022/07/21 12:17:51;;;;;;;5.20;3.70;;;33.80;63.90;;;;;;5114608;28;20451;-95
2022/07/21 12:20:39;;;;;;;4.50;3.40;;;33.80;63.80;;;;;;5107294;28;21088;-90
2022/07/21 12:23:29;;;;;;;3.60;3.30;;;33.90;63.80;;;;;;5104530;28;20483;-94
2022/07/21 12:26:00;;;;;;;3.60;3.10;;;33.90;63.70;;;;;;5100865;28;20417;-94
2022/07/21 12:28:46;;;;;;;3.90;3.53;;;33.90;63.70;;;;;;5100361;28;20444;-92
2022/07/21 12:31:16;;;;;;;4.90;3.17;;;33.90;63.80;;;;;;5102887;28;20416;-96
2022/07/21 12:33:42;;;;;;;5.90;4.10;;;33.70;64.00;;;;;;5099024;28;20431;-95
2022/07/21 12:36:09;;;;;;;4.00;3.60;;;33.80;63.90;;;;;;5101275;28;20424;-95
2022/07/21 12:38:45;;;;;;;4.43;4.03;;;33.90;63.60;;;;;;5097206;28;20441;-93
2022/07/21 12:41:16;;;;;;;7.27;6.50;;;33.90;64.00;;;;;;5110021;28;20972;-92
2022/07/21 12:43:42;;;;;;;23.80;19.60;;;33.70;64.70;;;;;;5110150;28;20788;-90
2022/07/21 12:46:12;;;;;;;5.27;4.77;;;33.70;64.00;;;;;;5101028;28;20444;-91
2022/07/21 12:48:38;;;;;;;3.73;3.37;;;33.70;64.20;;;;;;5109087;28;20508;-92
2022/07/21 12:51:04;;;;;;;3.97;3.63;;;33.50;64.30;;;;;;5113426;28;20416;-90
2022/07/21 12:53:31;;;;;;;4.33;3.70;;;33.70;64.20;;;;;;5102714;28;20955;-92